M I D A S
Marine Information and Data Acquisition System
Tripno 2319 of the Zeeleeuw from 2012-05-29 07:03:19 to 2012-05-29 15:46:05
Back to CruiseResearch ActivitiesStationsMapUnderway DataData graphs

EquipmentUnitsComment
TimeDGPSUTC
LatitudeDGPSDM.mWGS84
LongitudeDGPSDM.mWGS84
HeadingGyrodeg 
SOGDGPSknotsSpeed over ground
COGDGPSdegCourse over ground
DepthEcho soundermeters200 kHz
Missing or incorrect values are displayed as -999
Navigation data collected by the RV Zeeleeuw from 2012-05-29 02:21:52 to 2012-05-29 15:51:47
                                                                                    Next 1000 lines
Time Latitude Longitude Heading SOG COG Depth
2012-05-29 02:22:01 51°13.637 2°56.015 125.7 0.1 297 -999
2012-05-29 02:22:07 51°13.637 2°56.014 125.8 0.1 293 -999
2012-05-29 02:22:11 51°13.637 2°56.014 125.8 -999 274 -999
2012-05-29 02:22:17 51°13.637 2°56.015 125.8 -999 177 -999
2012-05-29 02:22:21 51°13.637 2°56.015 125.8 -999 172 -999
2012-05-29 02:22:27 51°13.637 2°56.015 125.8 0.1 83 -999
2012-05-29 02:22:31 51°13.638 2°56.015 125.8 -999 326 -999
2012-05-29 02:22:37 51°13.638 2°56.015 125.8 -999 310 -999
2012-05-29 02:22:41 51°13.638 2°56.015 125.8 -999 265 -999
2012-05-29 02:22:46 51°13.638 2°56.015 125.8 -999 303 -999
2012-05-29 02:22:51 51°13.638 2°56.015 125.8 -999 332 -999
2012-05-29 02:22:56 51°13.638 2°56.015 125.8 -999 287 -999
2012-05-29 02:23:02 51°13.638 2°56.015 125.8 0.1 113 -999
2012-05-29 02:23:06 51°13.638 2°56.015 125.8 0.1 95 -999
2012-05-29 02:23:11 51°13.638 2°56.014 125.8 -999 161 -999
2012-05-29 02:23:16 51°13.638 2°56.013 125.8 -999 255 -999
2012-05-29 02:23:22 51°13.638 2°56.013 125.8 -999 337 -999
2012-05-29 02:23:26 51°13.638 2°56.012 125.8 0.1 306 -999
2012-05-29 02:23:32 51°13.638 2°56.012 125.8 0.1 293 -999
2012-05-29 02:23:36 51°13.639 2°56.012 125.8 0.1 309 -999
2012-05-29 02:23:41 51°13.639 2°56.011 125.8 0.1 311 -999
2012-05-29 02:23:46 51°13.639 2°56.011 125.8 0.1 287 -999
2012-05-29 02:23:52 51°13.639 2°56.01 125.8 -999 274 -999
2012-05-29 02:23:57 51°13.639 2°56.01 125.8 0.1 333 -999
2012-05-29 02:24:01 51°13.639 2°56.01 125.8 0.1 304 -999
2012-05-29 02:24:07 51°13.639 2°56.01 125.8 0.1 281 -999
2012-05-29 02:24:11 51°13.639 2°56.01 125.8 0.1 282 -999
2012-05-29 02:24:17 51°13.639 2°56.01 125.8 -999 300 -999
2012-05-29 02:24:21 51°13.639 2°56.009 125.8 -999 334 -999
2012-05-29 02:24:27 51°13.639 2°56.009 125.8 0.2 293 -999
2012-05-29 02:24:31 51°13.639 2°56.009 125.8 0.1 274 -999
2012-05-29 02:24:37 51°13.639 2°56.009 125.8 0.1 288 -999
2012-05-29 02:24:41 51°13.639 2°56.008 125.8 0.1 289 -999
2012-05-29 02:24:47 51°13.639 2°56.008 125.8 -999 275 -999
2012-05-29 02:24:51 51°13.639 2°56.008 125.8 -999 279 -999
2012-05-29 02:24:56 51°13.639 2°56.008 125.9 -999 311 -999
2012-05-29 02:25:02 51°13.639 2°56.008 125.9 0.1 290 -999
2012-05-29 02:25:06 51°13.639 2°56.008 125.9 0.1 307 -999
2012-05-29 02:25:11 51°13.639 2°56.008 125.9 0.2 283 -999
2012-05-29 02:25:16 51°13.639 2°56.009 125.9 -999 295 -999
2012-05-29 02:25:22 51°13.639 2°56.009 125.9 -999 283 -999
2012-05-29 02:25:26 51°13.639 2°56.009 125.9 -999 75 -999
2012-05-29 02:25:31 51°13.639 2°56.01 125.9 -999 289 -999
2012-05-29 02:25:36 51°13.639 2°56.01 125.9 -999 27 -999
2012-05-29 02:25:42 51°13.639 2°56.01 125.9 -999 215 -999
2012-05-29 02:25:46 51°13.639 2°56.01 125.9 -999 226 -999
2012-05-29 02:25:52 51°13.639 2°56.01 125.9 0.1 290 -999
2012-05-29 02:25:57 51°13.639 2°56.01 125.8 0.1 292 -999
2012-05-29 02:26:01 51°13.639 2°56.01 125.8 -999 325 -999
2012-05-29 02:26:07 51°13.639 2°56.01 125.8 -999 310 -999
2012-05-29 02:26:11 51°13.639 2°56.01 125.8 -999 207 -999
2012-05-29 02:26:16 51°13.639 2°56.01 125.8 -999 256 -999
2012-05-29 02:26:21 51°13.639 2°56.01 125.7 -999 32 -999
2012-05-29 02:26:27 51°13.639 2°56.01 125.7 -999 354 -999
2012-05-29 02:26:31 51°13.639 2°56.01 125.7 -999 266 -999
2012-05-29 02:26:37 51°13.639 2°56.01 125.8 -999 195 -999
2012-05-29 02:26:41 51°13.639 2°56.01 125.8 -999 113 -999
2012-05-29 02:26:46 51°13.639 2°56.01 125.8 -999 17 -999
2012-05-29 02:26:51 51°13.639 2°56.01 125.8 0.1 308 -999
2012-05-29 02:26:56 51°13.639 2°56.01 125.8 0.1 134 -999
2012-05-29 02:27:02 51°13.639 2°56.01 125.8 -999 117 -999
2012-05-29 02:27:06 51°13.639 2°56.01 125.8 -999 243 -999
2012-05-29 02:27:11 51°13.639 2°56.01 125.8 -999 249 -999
2012-05-29 02:27:16 51°13.639 2°56.01 125.8 -999 277 -999
2012-05-29 02:27:22 51°13.639 2°56.009 125.7 0.1 294 -999
2012-05-29 02:27:26 51°13.639 2°56.009 125.7 0.1 306 -999
2012-05-29 02:27:32 51°13.639 2°56.009 125.7 -999 277 -999
2012-05-29 02:27:36 51°13.639 2°56.008 125.7 0.1 285 -999
2012-05-29 02:27:42 51°13.639 2°56.008 125.7 -999 258 -999
2012-05-29 02:27:46 51°13.639 2°56.008 125.7 -999 306 -999
2012-05-29 02:27:52 51°13.64 2°56.008 125.7 0.1 301 -999
2012-05-29 02:27:57 51°13.64 2°56.008 125.7 0.2 299 -999
2012-05-29 02:28:01 51°13.64 2°56.008 125.7 0.1 288 -999
2012-05-29 02:28:07 51°13.64 2°56.008 125.7 -999 271 -999
2012-05-29 02:28:11 51°13.64 2°56.009 125.7 -999 171 -999
2012-05-29 02:28:16 51°13.639 2°56.009 125.7 0.1 104 -999
2012-05-29 02:28:21 51°13.64 2°56.009 125.7 -999 99 -999
2012-05-29 02:28:26 51°13.64 2°56.01 125.7 -999 307 -999
2012-05-29 02:28:31 51°13.64 2°56.01 125.7 -999 114 -999
2012-05-29 02:28:37 51°13.64 2°56.01 125.7 -999 82 -999
2012-05-29 02:28:41 51°13.64 2°56.01 125.7 -999 59 -999
2012-05-29 02:28:46 51°13.64 2°56.01 125.7 -999 151 -999
2012-05-29 02:28:51 51°13.64 2°56.01 125.7 -999 99 -999
2012-05-29 02:28:56 51°13.64 2°56.01 125.7 -999 250 -999
2012-05-29 02:29:01 51°13.639 2°56.01 125.7 0.1 71 -999
2012-05-29 02:29:06 51°13.64 2°56.009 125.7 -999 323 -999
2012-05-29 02:29:11 51°13.64 2°56.009 125.7 0.1 302 -999
2012-05-29 02:29:16 51°13.64 2°56.009 125.7 -999 105 -999
2012-05-29 02:29:22 51°13.639 2°56.009 125.7 0.1 110 -999
2012-05-29 02:29:26 51°13.639 2°56.008 125.7 0.1 124 -999
2012-05-29 02:29:32 51°13.639 2°56.008 125.7 -999 148 -999
2012-05-29 02:29:36 51°13.639 2°56.008 125.7 -999 94 -999
2012-05-29 02:29:41 51°13.639 2°56.008 125.7 -999 172 -999
2012-05-29 02:29:46 51°13.639 2°56.007 125.7 -999 239 -999
2012-05-29 02:29:52 51°13.639 2°56.008 125.7 -999 1 -999
2012-05-29 02:29:57 51°13.639 2°56.008 125.7 -999 314 -999
2012-05-29 02:30:01 51°13.639 2°56.008 125.7 -999 305 -999
2012-05-29 02:30:07 51°13.638 2°56.007 125.7 -999 220 -999
2012-05-29 02:30:12 51°13.636 2°56.002 125.7 -999 134 -999
2012-05-29 02:30:16 51°13.635 2°55.997 125.7 -999 272 -999
2012-05-29 02:30:21 51°13.634 2°55.992 125.7 -999 326 -999
2012-05-29 02:30:27 51°13.634 2°55.991 125.7 0.1 287 -999
2012-05-29 02:30:32 51°13.634 2°55.99 125.7 0.1 290 -999
2012-05-29 02:30:36 51°13.634 2°55.99 125.7 0.1 281 -999
2012-05-29 02:30:41 51°13.634 2°55.991 125.7 -999 185 -999
2012-05-29 02:30:47 51°13.633 2°55.99 125.7 0.1 102 -999
2012-05-29 02:30:51 51°13.633 2°55.989 125.7 -999 294 -999
2012-05-29 02:30:57 51°13.633 2°55.987 125.7 -999 257 -999
2012-05-29 02:31:01 51°13.633 2°55.987 125.7 -999 316 -999
2012-05-29 02:31:07 51°13.634 2°55.988 125.7 -999 294 -999
2012-05-29 02:31:11 51°13.635 2°55.989 125.7 0.1 299 -999
2012-05-29 02:31:16 51°13.635 2°55.991 125.7 -999 197 -999
2012-05-29 02:31:21 51°13.635 2°55.993 125.7 0.1 272 -999
2012-05-29 02:31:27 51°13.636 2°55.994 125.7 -999 281 -999
2012-05-29 02:31:31 51°13.636 2°55.995 125.7 -999 137 -999
2012-05-29 02:31:37 51°13.636 2°55.996 125.7 -999 106 -999
2012-05-29 02:31:41 51°13.636 2°55.996 125.7 -999 40 -999
2012-05-29 02:31:47 51°13.636 2°55.997 125.7 0.1 305 -999
2012-05-29 02:31:51 51°13.636 2°55.997 125.7 0.1 282 -999
2012-05-29 02:31:57 51°13.636 2°55.998 125.7 0.1 268 -999
2012-05-29 02:32:01 51°13.636 2°55.998 125.7 -999 131 -999
2012-05-29 02:32:06 51°13.636 2°55.999 125.7 -999 254 -999
2012-05-29 02:32:11 51°13.636 2°55.999 125.7 0.1 273 -999
2012-05-29 02:32:17 51°13.636 2°55.999 125.7 -999 209 -999
2012-05-29 02:32:21 51°13.636 2°56 125.7 0.1 110 -999
2012-05-29 02:32:26 51°13.637 2°56 125.7 0.1 100 -999
2012-05-29 02:32:31 51°13.637 2°56 125.7 -999 100 -999
2012-05-29 02:32:36 51°13.637 2°56 125.7 -999 259 -999
2012-05-29 02:32:42 51°13.637 2°56 125.7 -999 145 -999
2012-05-29 02:32:46 51°13.637 2°56 125.7 -999 294 -999
2012-05-29 02:32:51 51°13.637 2°56 125.7 -999 51 -999
2012-05-29 02:32:56 51°13.637 2°56 125.7 0.1 289 -999
2012-05-29 02:33:02 51°13.637 2°56 125.7 -999 282 -999
2012-05-29 02:33:06 51°13.637 2°56 125.7 0.1 297 -999
2012-05-29 02:33:12 51°13.637 2°56 125.7 -999 217 -999
2012-05-29 02:33:16 51°13.637 2°56 125.7 -999 266 -999
2012-05-29 02:33:21 51°13.638 2°56 125.7 0.1 303 -999
2012-05-29 02:33:27 51°13.638 2°56 125.7 0.1 310 -999
2012-05-29 02:33:32 51°13.638 2°56 125.7 0.1 350 -999
2012-05-29 02:33:36 51°13.638 2°56 125.7 0.1 280 -999
2012-05-29 02:33:41 51°13.638 2°56 125.7 -999 231 -999
2012-05-29 02:33:47 51°13.638 2°56 125.7 -999 72 -999
2012-05-29 02:33:51 51°13.638 2°56 125.7 0.1 281 -999
2012-05-29 02:33:56 51°13.638 2°56 125.7 -999 255 -999
2012-05-29 02:34:01 51°13.638 2°56 125.7 0.1 311 -999
2012-05-29 02:34:06 51°13.638 2°56.001 125.7 -999 313 -999
2012-05-29 02:34:11 51°13.638 2°56 125.7 0.1 297 -999
2012-05-29 02:34:16 51°13.638 2°56.001 125.7 -999 292 -999
2012-05-29 02:34:22 51°13.638 2°56.001 125.7 -999 143 -999
2012-05-29 02:34:26 51°13.638 2°56.001 125.7 -999 282 -999
2012-05-29 02:34:31 51°13.638 2°56 125.7 0.1 283 -999
2012-05-29 02:34:36 51°13.639 2°55.999 125.7 -999 294 -999
2012-05-29 02:34:42 51°13.639 2°55.999 125.7 -999 308 -999
2012-05-29 02:34:46 51°13.639 2°55.999 125.7 -999 279 -999
2012-05-29 02:34:52 51°13.639 2°55.999 125.7 -999 295 -999
2012-05-29 02:34:56 51°13.639 2°55.999 125.7 -999 67 -999
2012-05-29 02:35:02 51°13.639 2°56 125.7 0.1 110 -999
2012-05-29 02:35:06 51°13.639 2°56 125.7 0.1 82 -999
2012-05-29 02:35:12 51°13.639 2°56 125.7 -999 349 -999
2012-05-29 02:35:16 51°13.639 2°56 125.6 0.1 75 -999
2012-05-29 02:35:21 51°13.639 2°56 125.6 -999 69 -999
2012-05-29 02:35:27 51°13.639 2°56 125.6 -999 287 -999
2012-05-29 02:35:32 51°13.639 2°56 125.6 0.1 294 -999
2012-05-29 02:35:36 51°13.637 2°56.015 125.6 -999 317 -999
2012-05-29 02:35:41 51°13.637 2°56.016 125.6 -999 219 -999
2012-05-29 02:35:47 51°13.637 2°56.016 125.6 -999 203 -999
2012-05-29 02:35:51 51°13.637 2°56.016 125.6 -999 9 -999
2012-05-29 02:35:57 51°13.637 2°56.016 125.6 -999 163 -999
2012-05-29 02:36:01 51°13.637 2°56.016 125.6 -999 342 -999
2012-05-29 02:36:06 51°13.638 2°56.017 125.6 -999 330 -999
2012-05-29 02:36:11 51°13.638 2°56.017 125.6 -999 345 -999
2012-05-29 02:36:16 51°13.638 2°56.017 125.6 -999 98 -999
2012-05-29 02:36:21 51°13.638 2°56.017 125.6 -999 244 -999
2012-05-29 02:36:26 51°13.638 2°56.017 125.6 -999 222 -999
2012-05-29 02:36:31 51°13.638 2°56.017 125.6 -999 37 -999
2012-05-29 02:36:36 51°13.638 2°56.016 125.6 -999 218 -999
2012-05-29 02:36:41 51°13.638 2°56.016 125.6 -999 186 -999
2012-05-29 02:36:46 51°13.638 2°56.016 125.6 -999 57 -999
2012-05-29 02:36:52 51°13.638 2°56.016 125.6 -999 185 -999
2012-05-29 02:36:56 51°13.638 2°56.016 125.6 -999 94 -999
2012-05-29 02:37:02 51°13.638 2°56.016 125.6 -999 24 -999
2012-05-29 02:37:06 51°13.638 2°56.016 125.6 -999 357 -999
2012-05-29 02:37:12 51°13.638 2°56.016 125.6 -999 164 -999
2012-05-29 02:37:17 51°13.638 2°56.016 125.6 -999 211 -999
2012-05-29 02:37:21 51°13.638 2°56.016 125.6 -999 234 -999
2012-05-29 02:37:26 51°13.638 2°56.016 125.6 -999 355 -999
2012-05-29 02:37:32 51°13.638 2°56.017 125.6 -999 25 -999
2012-05-29 02:37:36 51°13.638 2°56.017 125.6 -999 247 -999
2012-05-29 02:37:41 51°13.638 2°56.017 125.6 -999 231 -999
2012-05-29 02:37:47 51°13.639 2°56.017 125.6 -999 12 -999
2012-05-29 02:37:52 51°13.639 2°56.017 125.6 -999 24 -999
2012-05-29 02:37:57 51°13.639 2°56.016 125.6 -999 54 -999
2012-05-29 02:38:02 51°13.639 2°56.016 125.6 -999 138 -999
2012-05-29 02:38:06 51°13.639 2°56.016 125.6 -999 340 -999
2012-05-29 02:38:11 51°13.639 2°56.016 125.6 -999 212 -999
2012-05-29 02:38:16 51°13.639 2°56.016 125.6 -999 350 -999
2012-05-29 02:38:21 51°13.639 2°56.016 125.6 -999 347 -999
2012-05-29 02:38:26 51°13.638 2°56.017 125.6 -999 214 -999
2012-05-29 02:38:31 51°13.638 2°56.017 125.6 -999 220 -999
2012-05-29 02:38:37 51°13.638 2°56.017 125.6 -999 198 -999
2012-05-29 02:38:42 51°13.639 2°56.017 125.6 -999 51 -999
2012-05-29 02:38:47 51°13.639 2°56.017 125.6 -999 67 -999
2012-05-29 02:38:52 51°13.638 2°56.017 125.5 -999 214 -999
2012-05-29 02:38:57 51°13.638 2°56.017 125.5 -999 188 -999
2012-05-29 02:39:02 51°13.638 2°56.017 125.6 -999 136 -999
2012-05-29 02:39:07 51°13.638 2°56.017 125.6 -999 58 -999
2012-05-29 02:39:12 51°13.639 2°56.017 125.6 -999 313 -999
2012-05-29 02:39:17 51°13.639 2°56.017 125.6 -999 290 -999
2012-05-29 02:39:22 51°13.638 2°56.017 125.6 -999 213 -999
2012-05-29 02:39:27 51°13.638 2°56.017 125.6 -999 18 -999
2012-05-29 02:39:32 51°13.638 2°56.017 125.6 -999 12 -999
2012-05-29 02:39:37 51°13.638 2°56.017 125.7 -999 36 -999
2012-05-29 02:39:42 51°13.638 2°56.017 125.7 -999 232 -999
2012-05-29 02:39:47 51°13.638 2°56.017 125.7 -999 254 -999
2012-05-29 02:39:52 51°13.638 2°56.017 125.7 -999 8 -999
2012-05-29 02:39:57 51°13.638 2°56.017 125.7 -999 1 -999
2012-05-29 02:40:02 51°13.638 2°56.017 125.7 -999 199 -999
2012-05-29 02:40:06 51°13.637 2°56.017 125.7 -999 205 -999
2012-05-29 02:40:11 51°13.637 2°56.017 125.7 -999 124 -999
2012-05-29 02:40:16 51°13.637 2°56.017 125.7 -999 112 -999
2012-05-29 02:40:21 51°13.637 2°56.017 125.6 -999 82 -999
2012-05-29 02:40:26 51°13.637 2°56.017 125.6 -999 160 -999
2012-05-29 02:40:31 51°13.637 2°56.017 125.6 -999 215 -999
2012-05-29 02:40:37 51°13.637 2°56.017 125.6 -999 324 -999
2012-05-29 02:40:42 51°13.637 2°56.017 125.6 -999 314 -999
2012-05-29 02:40:47 51°13.637 2°56.017 125.7 -999 352 -999
2012-05-29 02:40:52 51°13.637 2°56.017 125.7 -999 245 -999
2012-05-29 02:40:57 51°13.637 2°56.017 125.8 -999 340 -999
2012-05-29 02:41:02 51°13.637 2°56.017 125.8 -999 15 -999
2012-05-29 02:41:07 51°13.637 2°56.017 125.8 -999 32 -999
2012-05-29 02:41:12 51°13.637 2°56.017 125.8 -999 255 -999
2012-05-29 02:41:17 51°13.637 2°56.017 125.8 -999 10 -999
2012-05-29 02:41:21 51°13.637 2°56.017 125.8 -999 8 -999
2012-05-29 02:41:27 51°13.637 2°56.017 125.7 -999 358 -999
2012-05-29 02:41:32 51°13.637 2°56.017 125.7 -999 341 -999
2012-05-29 02:41:36 51°13.637 2°56.017 125.7 -999 353 -999
2012-05-29 02:41:41 51°13.637 2°56.017 125.5 -999 316 -999
2012-05-29 02:41:47 51°13.637 2°56.017 125.5 -999 120 -999
2012-05-29 02:41:51 51°13.637 2°56.017 125.5 -999 318 -999
2012-05-29 02:41:56 51°13.637 2°56.017 125.5 -999 352 -999
2012-05-29 02:42:01 51°13.637 2°56.017 125.6 -999 301 -999
2012-05-29 02:42:06 51°13.637 2°56.017 125.6 -999 311 -999
2012-05-29 02:42:11 51°13.637 2°56.018 125.6 -999 230 -999
2012-05-29 02:42:16 51°13.637 2°56.018 125.6 -999 260 -999
2012-05-29 02:42:21 51°13.637 2°56.018 125.6 -999 13 -999
2012-05-29 02:42:26 51°13.637 2°56.018 125.6 -999 236 -999
2012-05-29 02:42:31 51°13.637 2°56.018 125.6 -999 27 -999
2012-05-29 02:42:36 51°13.637 2°56.018 125.5 -999 -999 -999
2012-05-29 02:42:41 51°13.637 2°56.018 125.4 -999 35 -999
2012-05-29 02:42:46 51°13.637 2°56.019 125.4 -999 188 -999
2012-05-29 02:42:51 51°13.637 2°56.019 125.4 -999 198 -999
2012-05-29 02:42:56 51°13.637 2°56.019 125.4 -999 298 -999
2012-05-29 02:43:02 51°13.637 2°56.019 125.4 -999 19 -999
2012-05-29 02:43:07 51°13.637 2°56.019 125.4 -999 234 -999
2012-05-29 02:43:12 51°13.637 2°56.019 125.5 -999 265 -999
2012-05-29 02:43:17 51°13.637 2°56.019 125.5 -999 13 -999
2012-05-29 02:43:22 51°13.637 2°56.019 125.5 -999 311 -999
2012-05-29 02:43:27 51°13.637 2°56.019 125.5 -999 244 -999
2012-05-29 02:43:31 51°13.637 2°56.019 125.5 -999 197 -999
2012-05-29 02:43:36 51°13.637 2°56.019 125.5 -999 19 -999
2012-05-29 02:43:41 51°13.637 2°56.019 125.5 -999 237 -999
2012-05-29 02:43:46 51°13.637 2°56.019 125.5 -999 34 -999
2012-05-29 02:43:52 51°13.636 2°56.019 125.5 -999 327 -999
2012-05-29 02:43:56 51°13.636 2°56.019 125.5 -999 217 -999
2012-05-29 02:44:01 51°13.636 2°56.019 125.5 -999 38 -999
2012-05-29 02:44:06 51°13.636 2°56.019 125.5 -999 26 -999
2012-05-29 02:44:11 51°13.636 2°56.019 125.5 -999 267 -999
2012-05-29 02:44:16 51°13.636 2°56.019 125.5 -999 352 -999
2012-05-29 02:44:22 51°13.636 2°56.019 125.5 -999 13 -999
2012-05-29 02:44:27 51°13.636 2°56.019 125.5 -999 253 -999
2012-05-29 02:44:32 51°13.636 2°56.019 125.5 -999 240 -999
2012-05-29 02:44:37 51°13.636 2°56.019 125.5 -999 213 -999
2012-05-29 02:44:42 51°13.636 2°56.019 125.5 -999 205 -999
2012-05-29 02:44:47 51°13.636 2°56.019 125.5 -999 275 -999
2012-05-29 02:44:52 51°13.636 2°56.019 125.5 -999 209 -999
2012-05-29 02:44:57 51°13.636 2°56.019 125.5 -999 342 -999
2012-05-29 02:45:02 51°13.636 2°56.019 125.5 -999 310 -999
2012-05-29 02:45:07 51°13.636 2°56.019 125.5 -999 220 -999
2012-05-29 02:45:12 51°13.636 2°56.019 125.5 -999 214 -999
2012-05-29 02:45:17 51°13.636 2°56.019 125.5 -999 24 -999
2012-05-29 02:45:22 51°13.636 2°56.019 125.5 -999 10 -999
2012-05-29 02:45:27 51°13.636 2°56.019 125.5 -999 200 -999
2012-05-29 02:45:32 51°13.636 2°56.019 125.5 -999 41 -999
2012-05-29 02:45:36 51°13.636 2°56.019 125.5 -999 248 -999
2012-05-29 02:45:41 51°13.636 2°56.019 125.5 -999 106 -999
2012-05-29 02:45:46 51°13.636 2°56.019 125.5 -999 171 -999
2012-05-29 02:45:51 51°13.636 2°56.019 125.5 -999 188 -999
2012-05-29 02:45:56 51°13.636 2°56.019 125.5 -999 324 -999
2012-05-29 02:46:01 51°13.636 2°56.019 125.5 -999 201 -999
2012-05-29 02:46:06 51°13.636 2°56.019 125.5 -999 207 -999
2012-05-29 02:46:11 51°13.636 2°56.019 125.5 -999 5 -999
2012-05-29 02:46:16 51°13.636 2°56.018 125.5 -999 348 -999
2012-05-29 02:46:21 51°13.636 2°56.018 125.5 -999 346 -999
2012-05-29 02:46:26 51°13.636 2°56.018 125.6 -999 323 -999
2012-05-29 02:46:32 51°13.636 2°56.018 125.6 -999 346 -999
2012-05-29 02:46:37 51°13.636 2°56.019 125.6 -999 -999 -999
2012-05-29 02:46:42 51°13.636 2°56.019 125.6 -999 191 -999
2012-05-29 02:46:47 51°13.636 2°56.019 125.6 -999 122 -999
2012-05-29 02:46:52 51°13.636 2°56.019 125.6 -999 62 -999
2012-05-29 02:46:57 51°13.636 2°56.019 125.6 -999 117 -999
2012-05-29 02:47:02 51°13.636 2°56.019 125.6 -999 350 -999
2012-05-29 02:47:07 51°13.636 2°56.019 125.6 -999 216 -999
2012-05-29 02:47:12 51°13.636 2°56.019 125.6 -999 239 -999
2012-05-29 02:47:17 51°13.636 2°56.019 125.6 -999 359 -999
2012-05-29 02:47:21 51°13.636 2°56.019 125.6 -999 273 -999
2012-05-29 02:47:27 51°13.636 2°56.019 125.6 -999 275 -999
2012-05-29 02:47:31 51°13.636 2°56.019 125.6 -999 359 -999
2012-05-29 02:47:36 51°13.637 2°56.019 125.6 -999 225 -999
2012-05-29 02:47:41 51°13.637 2°56.019 125.6 -999 -999 -999
2012-05-29 02:47:46 51°13.637 2°56.019 125.6 -999 313 -999
2012-05-29 02:47:51 51°13.637 2°56.019 125.6 -999 132 -999
2012-05-29 02:47:56 51°13.637 2°56.019 125.6 -999 180 -999
2012-05-29 02:48:02 51°13.637 2°56.019 125.5 -999 180 -999
2012-05-29 02:48:07 51°13.637 2°56.019 125.5 -999 275 -999
2012-05-29 02:48:12 51°13.637 2°56.019 125.5 -999 265 -999
2012-05-29 02:48:17 51°13.637 2°56.019 125.5 -999 269 -999
2012-05-29 02:48:21 51°13.637 2°56.019 125.5 -999 181 -999
2012-05-29 02:48:27 51°13.637 2°56.019 125.5 -999 238 -999
2012-05-29 02:48:32 51°13.637 2°56.019 125.5 -999 300 -999
2012-05-29 02:48:36 51°13.637 2°56.019 125.5 -999 351 -999
2012-05-29 02:48:41 51°13.637 2°56.019 125.5 -999 39 -999
2012-05-29 02:48:46 51°13.637 2°56.019 125.5 -999 177 -999
2012-05-29 02:48:51 51°13.637 2°56.019 125.5 -999 180 -999
2012-05-29 02:48:56 51°13.637 2°56.019 125.5 -999 129 -999
2012-05-29 02:49:01 51°13.637 2°56.019 125.5 -999 335 -999
2012-05-29 02:49:07 51°13.637 2°56.019 125.5 -999 243 -999
2012-05-29 02:49:12 51°13.637 2°56.019 125.5 -999 214 -999
2012-05-29 02:49:17 51°13.637 2°56.019 125.5 -999 326 -999
2012-05-29 02:49:21 51°13.636 2°56.019 125.5 -999 347 -999
2012-05-29 02:49:26 51°13.636 2°56.019 125.5 -999 334 -999
2012-05-29 02:49:32 51°13.636 2°56.019 125.5 -999 337 -999
2012-05-29 02:49:37 51°13.636 2°56.019 125.5 -999 19 -999
2012-05-29 02:49:42 51°13.636 2°56.019 125.5 -999 246 -999
2012-05-29 02:49:47 51°13.636 2°56.019 125.5 -999 359 -999
2012-05-29 02:49:52 51°13.636 2°56.019 125.5 -999 327 -999
2012-05-29 02:49:57 51°13.636 2°56.019 125.5 -999 35 -999
2012-05-29 02:50:02 51°13.636 2°56.019 125.5 -999 310 -999
2012-05-29 02:50:07 51°13.636 2°56.019 125.5 -999 217 -999
2012-05-29 02:50:11 51°13.636 2°56.019 125.5 -999 22 -999
2012-05-29 02:50:16 51°13.636 2°56.019 125.5 -999 344 -999
2012-05-29 02:50:21 51°13.636 2°56.019 125.5 -999 344 -999
2012-05-29 02:50:26 51°13.636 2°56.019 125.5 -999 295 -999
2012-05-29 02:50:31 51°13.636 2°56.019 125.5 -999 25 -999
2012-05-29 02:50:36 51°13.636 2°56.019 125.5 -999 321 -999
2012-05-29 02:50:41 51°13.636 2°56.019 125.5 -999 238 -999
2012-05-29 02:50:46 51°13.636 2°56.019 125.5 -999 89 -999
2012-05-29 02:50:52 51°13.636 2°56.019 125.5 -999 325 -999
2012-05-29 02:50:57 51°13.636 2°56.019 125.5 -999 325 -999
2012-05-29 02:51:02 51°13.636 2°56.019 125.5 -999 -999 -999
2012-05-29 02:51:07 51°13.637 2°56.02 125.5 -999 13 -999
2012-05-29 02:51:12 51°13.636 2°56.02 125.5 -999 269 -999
2012-05-29 02:51:17 51°13.637 2°56.02 125.5 -999 299 -999
2012-05-29 02:51:22 51°13.637 2°56.02 125.5 -999 239 -999
2012-05-29 02:51:27 51°13.637 2°56.02 125.5 -999 133 -999
2012-05-29 02:51:31 51°13.637 2°56.02 125.5 -999 241 -999
2012-05-29 02:51:36 51°13.637 2°56.02 125.5 -999 209 -999
2012-05-29 02:51:41 51°13.637 2°56.02 125.6 -999 127 -999
2012-05-29 02:51:46 51°13.637 2°56.02 125.6 -999 335 -999
2012-05-29 02:51:51 51°13.637 2°56.019 125.6 -999 9 -999
2012-05-29 02:51:56 51°13.637 2°56.019 125.6 -999 328 -999
2012-05-29 02:52:01 51°13.637 2°56.019 125.6 -999 22 -999
2012-05-29 02:52:06 51°13.637 2°56.019 125.6 -999 349 -999
2012-05-29 02:52:11 51°13.637 2°56.019 125.6 -999 27 -999
2012-05-29 02:52:16 51°13.637 2°56.019 125.6 -999 20 -999
2012-05-29 02:52:21 51°13.637 2°56.019 125.6 -999 236 -999
2012-05-29 02:52:26 51°13.637 2°56.019 125.6 -999 263 -999
2012-05-29 02:52:31 51°13.637 2°56.019 125.6 -999 36 -999
2012-05-29 02:52:36 51°13.637 2°56.019 125.7 -999 350 -999
2012-05-29 02:52:41 51°13.637 2°56.019 125.7 -999 23 -999
2012-05-29 02:52:46 51°13.637 2°56.019 125.7 -999 188 -999
2012-05-29 02:52:51 51°13.637 2°56.019 125.7 -999 32 -999
2012-05-29 02:52:56 51°13.637 2°56.019 125.7 -999 228 -999
2012-05-29 02:53:01 51°13.637 2°56.019 125.6 -999 170 -999
2012-05-29 02:53:06 51°13.637 2°56.019 125.6 -999 68 -999
2012-05-29 02:53:11 51°13.637 2°56.019 125.5 -999 19 -999
2012-05-29 02:53:16 51°13.637 2°56.018 125.5 -999 267 -999
2012-05-29 02:53:21 51°13.637 2°56.018 125.5 -999 29 -999
2012-05-29 02:53:26 51°13.636 2°56.018 125.5 -999 184 -999
2012-05-29 02:53:31 51°13.636 2°56.018 125.5 -999 226 -999
2012-05-29 02:53:36 51°13.637 2°56.018 125.5 -999 273 -999
2012-05-29 02:53:41 51°13.637 2°56.018 125.5 -999 342 -999
2012-05-29 02:53:46 51°13.637 2°56.019 125.5 -999 43 -999
2012-05-29 02:53:51 51°13.636 2°56.019 125.5 -999 194 -999
2012-05-29 02:53:56 51°13.636 2°56.019 125.5 -999 241 -999
2012-05-29 02:54:01 51°13.636 2°56.019 125.5 -999 44 -999
2012-05-29 02:54:06 51°13.636 2°56.019 125.5 -999 305 -999
2012-05-29 02:54:11 51°13.636 2°56.019 125.5 -999 319 -999
2012-05-29 02:54:16 51°13.636 2°56.019 125.5 -999 221 -999
2012-05-29 02:54:21 51°13.636 2°56.019 125.5 -999 127 -999
2012-05-29 02:54:26 51°13.637 2°56.019 125.5 -999 289 -999
2012-05-29 02:54:31 51°13.637 2°56.019 125.5 -999 345 -999
2012-05-29 02:54:36 51°13.637 2°56.019 125.5 -999 354 -999
2012-05-29 02:54:41 51°13.637 2°56.019 125.6 -999 240 -999
2012-05-29 02:54:46 51°13.637 2°56.019 125.6 -999 246 -999
2012-05-29 02:54:51 51°13.636 2°56.019 125.6 -999 250 -999
2012-05-29 02:54:57 51°13.636 2°56.019 125.7 -999 39 -999
2012-05-29 02:55:02 51°13.636 2°56.019 125.7 -999 191 -999
2012-05-29 02:55:07 51°13.636 2°56.019 125.7 -999 162 -999
2012-05-29 02:55:12 51°13.636 2°56.019 125.7 -999 122 -999
2012-05-29 02:55:17 51°13.636 2°56.019 125.7 -999 235 -999
2012-05-29 02:55:22 51°13.636 2°56.019 125.7 -999 207 -999
2012-05-29 02:55:27 51°13.636 2°56.019 125.7 -999 166 -999
2012-05-29 02:55:32 51°13.636 2°56.019 125.7 -999 179 -999
2012-05-29 02:55:37 51°13.636 2°56.019 125.7 -999 23 -999
2012-05-29 02:55:42 51°13.636 2°56.019 125.7 -999 335 -999
2012-05-29 02:55:47 51°13.636 2°56.019 125.7 -999 327 -999
2012-05-29 02:55:52 51°13.636 2°56.019 125.7 -999 276 -999
2012-05-29 02:55:57 51°13.636 2°56.019 125.7 -999 307 -999
2012-05-29 02:56:02 51°13.636 2°56.019 125.7 -999 275 -999
2012-05-29 02:56:07 51°13.636 2°56.019 125.7 -999 3 -999
2012-05-29 02:56:12 51°13.636 2°56.019 125.7 -999 4 -999
2012-05-29 02:56:17 51°13.636 2°56.019 125.7 -999 22 -999
2012-05-29 02:56:22 51°13.636 2°56.019 125.7 -999 95 -999
2012-05-29 02:56:27 51°13.636 2°56.019 125.7 -999 205 -999
2012-05-29 02:56:32 51°13.637 2°56.019 125.7 -999 186 -999
2012-05-29 02:56:37 51°13.636 2°56.019 125.6 -999 209 -999
2012-05-29 02:56:42 51°13.637 2°56.019 125.6 -999 253 -999
2012-05-29 02:56:47 51°13.637 2°56.019 125.6 -999 44 -999
2012-05-29 02:56:52 51°13.637 2°56.019 125.6 -999 235 -999
2012-05-29 02:56:57 51°13.637 2°56.019 125.5 -999 323 -999
2012-05-29 02:57:02 51°13.637 2°56.019 125.6 -999 50 -999
2012-05-29 02:57:06 51°13.637 2°56.019 125.6 -999 299 -999
2012-05-29 02:57:11 51°13.637 2°56.019 125.6 -999 188 -999
2012-05-29 02:57:16 51°13.637 2°56.019 125.6 -999 128 -999
2012-05-29 02:57:21 51°13.637 2°56.019 125.6 -999 14 -999
2012-05-29 02:57:26 51°13.637 2°56.019 125.6 -999 236 -999
2012-05-29 02:57:31 51°13.637 2°56.019 125.6 -999 196 -999
2012-05-29 02:57:36 51°13.637 2°56.019 125.6 -999 215 -999
2012-05-29 02:57:41 51°13.637 2°56.019 125.6 -999 10 -999
2012-05-29 02:57:46 51°13.637 2°56.019 125.6 -999 21 -999
2012-05-29 02:57:51 51°13.637 2°56.019 125.6 -999 59 -999
2012-05-29 02:57:56 51°13.637 2°56.019 125.6 -999 254 -999
2012-05-29 02:58:01 51°13.637 2°56.019 125.6 -999 194 -999
2012-05-29 02:58:06 51°13.637 2°56.019 125.6 -999 356 -999
2012-05-29 02:58:11 51°13.637 2°56.019 125.6 -999 327 -999
2012-05-29 02:58:16 51°13.637 2°56.019 125.6 -999 16 -999
2012-05-29 02:58:22 51°13.637 2°56.02 125.6 -999 18 -999
2012-05-29 02:58:26 51°13.637 2°56.02 125.6 -999 218 -999
2012-05-29 02:58:31 51°13.637 2°56.02 125.6 -999 202 -999
2012-05-29 02:58:36 51°13.637 2°56.02 125.6 -999 31 -999
2012-05-29 02:58:41 51°13.637 2°56.019 125.6 -999 6 -999
2012-05-29 02:58:46 51°13.637 2°56.019 125.6 -999 194 -999
2012-05-29 02:58:51 51°13.637 2°56.019 125.6 -999 20 -999
2012-05-29 02:58:56 51°13.637 2°56.019 125.6 -999 8 -999
2012-05-29 02:59:01 51°13.637 2°56.019 125.6 -999 14 -999
2012-05-29 02:59:06 51°13.637 2°56.019 125.6 -999 180 -999
2012-05-29 02:59:11 51°13.637 2°56.019 125.6 -999 311 -999
2012-05-29 02:59:16 51°13.637 2°56.019 125.6 -999 10 -999
2012-05-29 02:59:21 51°13.637 2°56.019 125.6 -999 117 -999
2012-05-29 02:59:26 51°13.637 2°56.019 125.6 -999 321 -999
2012-05-29 02:59:31 51°13.637 2°56.019 125.6 -999 322 -999
2012-05-29 02:59:36 51°13.637 2°56.019 125.6 -999 115 -999
2012-05-29 02:59:41 51°13.637 2°56.019 125.6 -999 224 -999
2012-05-29 02:59:46 51°13.637 2°56.019 125.6 -999 358 -999
2012-05-29 02:59:51 51°13.637 2°56.019 125.6 -999 15 -999
2012-05-29 02:59:57 51°13.637 2°56.019 125.6 -999 154 -999
2012-05-29 03:00:02 51°13.637 2°56.018 125.6 -999 239 -999
2012-05-29 03:00:07 51°13.637 2°56.018 125.6 -999 339 -999
2012-05-29 03:00:12 51°13.637 2°56.018 125.6 -999 355 -999
2012-05-29 03:00:17 51°13.637 2°56.018 125.6 -999 214 -999
2012-05-29 03:00:22 51°13.637 2°56.018 125.6 -999 86 -999
2012-05-29 03:00:26 51°13.637 2°56.018 125.6 -999 209 -999
2012-05-29 03:00:31 51°13.637 2°56.018 125.6 -999 242 -999
2012-05-29 03:00:37 51°13.637 2°56.018 125.7 -999 211 -999
2012-05-29 03:00:41 51°13.637 2°56.018 125.7 -999 281 -999
2012-05-29 03:00:46 51°13.637 2°56.018 125.7 -999 221 -999
2012-05-29 03:00:51 51°13.637 2°56.018 125.7 -999 244 -999
2012-05-29 03:00:57 51°13.637 2°56.018 125.7 -999 355 -999
2012-05-29 03:01:02 51°13.637 2°56.018 125.7 -999 270 -999
2012-05-29 03:01:07 51°13.637 2°56.018 125.7 -999 228 -999
2012-05-29 03:01:12 51°13.637 2°56.018 125.7 -999 184 -999
2012-05-29 03:01:17 51°13.637 2°56.018 125.7 -999 188 -999
2012-05-29 03:01:22 51°13.637 2°56.018 125.7 -999 48 -999
2012-05-29 03:01:27 51°13.637 2°56.018 125.7 -999 241 -999
2012-05-29 03:01:32 51°13.637 2°56.018 125.6 -999 232 -999
2012-05-29 03:01:37 51°13.637 2°56.018 125.6 -999 270 -999
2012-05-29 03:01:42 51°13.637 2°56.018 125.6 -999 327 -999
2012-05-29 03:01:46 51°13.637 2°56.018 125.6 -999 332 -999
2012-05-29 03:01:51 51°13.637 2°56.018 125.6 -999 250 -999
2012-05-29 03:01:56 51°13.637 2°56.018 125.6 -999 221 -999
2012-05-29 03:02:01 51°13.637 2°56.018 125.6 -999 110 -999
2012-05-29 03:02:06 51°13.637 2°56.018 125.6 -999 29 -999
2012-05-29 03:02:11 51°13.637 2°56.018 125.6 -999 357 -999
2012-05-29 03:02:16 51°13.637 2°56.018 125.6 -999 351 -999
2012-05-29 03:02:21 51°13.637 2°56.018 125.6 -999 207 -999
2012-05-29 03:02:27 51°13.637 2°56.018 125.6 -999 311 -999
2012-05-29 03:02:32 51°13.637 2°56.018 125.6 -999 280 -999
2012-05-29 03:02:37 51°13.637 2°56.018 125.6 -999 9 -999
2012-05-29 03:02:42 51°13.637 2°56.018 125.6 -999 188 -999
2012-05-29 03:02:47 51°13.637 2°56.018 125.6 -999 32 -999
2012-05-29 03:02:52 51°13.637 2°56.018 125.6 -999 281 -999
2012-05-29 03:02:56 51°13.637 2°56.018 125.6 -999 327 -999
2012-05-29 03:03:01 51°13.637 2°56.018 125.6 -999 252 -999
2012-05-29 03:03:06 51°13.637 2°56.018 125.6 -999 254 -999
2012-05-29 03:03:11 51°13.637 2°56.018 125.6 -999 357 -999
2012-05-29 03:03:16 51°13.637 2°56.018 125.6 -999 12 -999
2012-05-29 03:03:21 51°13.637 2°56.018 125.6 -999 304 -999
2012-05-29 03:03:26 51°13.637 2°56.018 125.6 -999 169 -999
2012-05-29 03:03:32 51°13.637 2°56.018 125.6 -999 208 -999
2012-05-29 03:03:36 51°13.637 2°56.018 125.6 -999 321 -999
2012-05-29 03:03:41 51°13.637 2°56.018 125.6 -999 24 -999
2012-05-29 03:03:46 51°13.637 2°56.018 125.6 -999 336 -999
2012-05-29 03:03:52 51°13.637 2°56.018 125.7 -999 303 -999
2012-05-29 03:03:57 51°13.637 2°56.018 125.7 -999 33 -999
2012-05-29 03:04:02 51°13.637 2°56.018 125.7 -999 205 -999
2012-05-29 03:04:07 51°13.637 2°56.018 125.7 -999 194 -999
2012-05-29 03:04:12 51°13.637 2°56.018 125.7 -999 321 -999
2012-05-29 03:04:17 51°13.637 2°56.018 125.7 -999 262 -999
2012-05-29 03:04:22 51°13.637 2°56.018 125.7 -999 23 -999
2012-05-29 03:04:26 51°13.637 2°56.018 125.7 -999 204 -999
2012-05-29 03:04:32 51°13.637 2°56.019 125.7 -999 54 -999
2012-05-29 03:04:37 51°13.637 2°56.019 125.7 -999 30 -999
2012-05-29 03:04:42 51°13.636 2°56.019 125.7 -999 125 -999
2012-05-29 03:04:46 51°13.636 2°56.019 125.7 -999 203 -999
2012-05-29 03:04:51 51°13.636 2°56.019 125.7 -999 65 -999
2012-05-29 03:04:56 51°13.636 2°56.019 125.7 -999 306 -999
2012-05-29 03:05:01 51°13.636 2°56.019 125.7 -999 302 -999
2012-05-29 03:05:06 51°13.636 2°56.019 125.7 -999 57 -999
2012-05-29 03:05:11 51°13.636 2°56.019 125.7 -999 299 -999
2012-05-29 03:05:17 51°13.637 2°56.019 125.7 -999 318 -999
2012-05-29 03:05:21 51°13.637 2°56.019 125.7 -999 281 -999
2012-05-29 03:05:26 51°13.636 2°56.019 125.7 -999 214 -999
2012-05-29 03:05:31 51°13.636 2°56.019 125.7 -999 221 -999
2012-05-29 03:05:37 51°13.636 2°56.019 125.7 -999 170 -999
2012-05-29 03:05:42 51°13.636 2°56.019 125.7 -999 175 -999
2012-05-29 03:05:47 51°13.637 2°56.019 125.7 -999 116 -999
2012-05-29 03:05:52 51°13.637 2°56.018 125.7 -999 1 -999
2012-05-29 03:05:57 51°13.637 2°56.018 125.7 -999 44 -999
2012-05-29 03:06:02 51°13.637 2°56.018 125.7 -999 323 -999
2012-05-29 03:06:07 51°13.637 2°56.018 125.7 -999 319 -999
2012-05-29 03:06:12 51°13.637 2°56.018 125.7 -999 13 -999
2012-05-29 03:06:17 51°13.637 2°56.018 125.7 -999 89 -999
2012-05-29 03:06:22 51°13.637 2°56.018 125.7 -999 105 -999
2012-05-29 03:06:27 51°13.637 2°56.018 125.7 -999 355 -999
2012-05-29 03:06:32 51°13.637 2°56.018 125.7 -999 40 -999
2012-05-29 03:06:37 51°13.637 2°56.018 125.7 -999 13 -999
2012-05-29 03:06:42 51°13.637 2°56.018 125.7 -999 9 -999
2012-05-29 03:06:47 51°13.636 2°56.018 125.7 -999 27 -999
2012-05-29 03:06:52 51°13.636 2°56.018 125.7 -999 235 -999
2012-05-29 03:06:57 51°13.636 2°56.018 125.7 -999 231 -999
2012-05-29 03:07:02 51°13.636 2°56.018 125.7 -999 1 -999
2012-05-29 03:07:07 51°13.636 2°56.018 125.7 -999 350 -999
2012-05-29 03:07:12 51°13.636 2°56.018 125.7 -999 350 -999
2012-05-29 03:07:17 51°13.636 2°56.018 125.7 -999 299 -999
2012-05-29 03:07:22 51°13.636 2°56.018 125.8 -999 351 -999
2012-05-29 03:07:27 51°13.636 2°56.018 125.8 -999 5 -999
2012-05-29 03:07:32 51°13.636 2°56.018 125.8 -999 348 -999
2012-05-29 03:07:37 51°13.636 2°56.018 125.8 -999 245 -999
2012-05-29 03:07:42 51°13.636 2°56.018 125.8 -999 251 -999
2012-05-29 03:07:47 51°13.636 2°56.019 125.8 -999 155 -999
2012-05-29 03:07:52 51°13.636 2°56.019 125.8 -999 180 -999
2012-05-29 03:07:57 51°13.636 2°56.019 125.8 -999 84 -999
2012-05-29 03:08:02 51°13.636 2°56.019 125.8 -999 197 -999
2012-05-29 03:08:07 51°13.636 2°56.018 125.8 -999 167 -999
2012-05-29 03:08:11 51°13.637 2°56.018 125.8 -999 32 -999
2012-05-29 03:08:16 51°13.636 2°56.018 125.8 -999 305 -999
2012-05-29 03:08:21 51°13.636 2°56.018 125.8 -999 339 -999
2012-05-29 03:08:26 51°13.636 2°56.018 125.8 -999 224 -999
2012-05-29 03:08:32 51°13.636 2°56.018 125.9 -999 177 -999
2012-05-29 03:08:37 51°13.636 2°56.018 125.9 -999 173 -999
2012-05-29 03:08:42 51°13.636 2°56.018 125.9 -999 117 -999
2012-05-29 03:08:47 51°13.636 2°56.018 125.9 -999 79 -999
2012-05-29 03:08:52 51°13.636 2°56.018 125.9 -999 198 -999
2012-05-29 03:08:57 51°13.636 2°56.018 125.9 -999 116 -999
2012-05-29 03:09:02 51°13.636 2°56.018 125.9 -999 347 -999
2012-05-29 03:09:07 51°13.636 2°56.018 125.9 -999 19 -999
2012-05-29 03:09:11 51°13.636 2°56.018 125.9 -999 109 -999
2012-05-29 03:09:17 51°13.636 2°56.018 125.9 -999 29 -999
2012-05-29 03:09:22 51°13.636 2°56.018 125.9 -999 61 -999
2012-05-29 03:09:27 51°13.636 2°56.018 125.9 -999 237 -999
2012-05-29 03:09:32 51°13.636 2°56.018 125.9 -999 218 -999
2012-05-29 03:09:36 51°13.636 2°56.018 125.9 -999 178 -999
2012-05-29 03:09:41 51°13.636 2°56.018 125.9 -999 6 -999
2012-05-29 03:09:46 51°13.636 2°56.018 125.9 -999 351 -999
2012-05-29 03:09:52 51°13.636 2°56.018 125.9 -999 288 -999
2012-05-29 03:09:56 51°13.635 2°56.018 125.9 -999 11 -999
2012-05-29 03:10:02 51°13.635 2°56.018 125.9 -999 163 -999
2012-05-29 03:10:06 51°13.635 2°56.018 125.9 -999 292 -999
2012-05-29 03:10:12 51°13.635 2°56.018 125.9 -999 203 -999
2012-05-29 03:10:17 51°13.635 2°56.018 125.9 -999 227 -999
2012-05-29 03:10:22 51°13.635 2°56.018 125.9 -999 348 -999
2012-05-29 03:10:27 51°13.635 2°56.018 125.8 -999 54 -999
2012-05-29 03:10:32 51°13.635 2°56.019 125.8 -999 67 -999
2012-05-29 03:10:36 51°13.635 2°56.019 125.8 -999 25 -999
2012-05-29 03:10:41 51°13.635 2°56.019 125.8 -999 205 -999
2012-05-29 03:10:46 51°13.635 2°56.019 125.8 -999 201 -999
2012-05-29 03:10:51 51°13.635 2°56.019 125.8 -999 168 -999
2012-05-29 03:10:56 51°13.635 2°56.019 125.8 -999 20 -999
2012-05-29 03:11:02 51°13.635 2°56.019 125.8 -999 61 -999
2012-05-29 03:11:06 51°13.635 2°56.019 125.8 -999 54 -999
2012-05-29 03:11:11 51°13.635 2°56.019 125.8 -999 38 -999
2012-05-29 03:11:16 51°13.635 2°56.019 125.8 -999 16 -999
2012-05-29 03:11:22 51°13.635 2°56.019 125.8 -999 23 -999
2012-05-29 03:11:27 51°13.635 2°56.019 125.8 -999 226 -999
2012-05-29 03:11:32 51°13.635 2°56.019 125.8 -999 286 -999
2012-05-29 03:11:37 51°13.635 2°56.019 125.8 -999 293 -999
2012-05-29 03:11:42 51°13.635 2°56.019 125.8 -999 216 -999
2012-05-29 03:11:47 51°13.635 2°56.019 125.8 -999 194 -999
2012-05-29 03:11:52 51°13.635 2°56.019 125.8 -999 230 -999
2012-05-29 03:11:57 51°13.635 2°56.019 125.8 -999 68 -999
2012-05-29 03:12:02 51°13.635 2°56.019 125.8 -999 91 -999
2012-05-29 03:12:07 51°13.635 2°56.019 125.7 -999 289 -999
2012-05-29 03:12:12 51°13.635 2°56.019 125.7 -999 298 -999
2012-05-29 03:12:17 51°13.635 2°56.019 125.7 -999 219 -999
2012-05-29 03:12:21 51°13.635 2°56.019 125.7 -999 335 -999
2012-05-29 03:12:27 51°13.635 2°56.019 125.7 -999 217 -999
2012-05-29 03:12:32 51°13.635 2°56.019 125.7 -999 351 -999
2012-05-29 03:12:36 51°13.635 2°56.02 125.7 -999 339 -999
2012-05-29 03:12:41 51°13.635 2°56.02 125.7 -999 89 -999
2012-05-29 03:12:47 51°13.635 2°56.02 125.7 -999 211 -999
2012-05-29 03:12:51 51°13.635 2°56.02 125.7 -999 329 -999
2012-05-29 03:12:57 51°13.635 2°56.02 125.7 -999 319 -999
2012-05-29 03:13:02 51°13.635 2°56.02 125.7 -999 180 -999
2012-05-29 03:13:07 51°13.635 2°56.019 125.7 -999 254 -999
2012-05-29 03:13:12 51°13.635 2°56.019 125.7 -999 121 -999
2012-05-29 03:13:17 51°13.635 2°56.019 125.7 -999 57 -999
2012-05-29 03:13:22 51°13.635 2°56.018 125.7 -999 338 -999
2012-05-29 03:13:27 51°13.635 2°56.018 125.7 -999 268 -999
2012-05-29 03:13:32 51°13.635 2°56.018 125.7 -999 293 -999
2012-05-29 03:13:36 51°13.635 2°56.018 125.7 -999 226 -999
2012-05-29 03:13:41 51°13.635 2°56.018 125.7 -999 255 -999
2012-05-29 03:13:46 51°13.635 2°56.018 125.7 -999 283 -999
2012-05-29 03:13:51 51°13.635 2°56.018 125.7 -999 307 -999
2012-05-29 03:13:56 51°13.635 2°56.018 125.7 -999 77 -999
2012-05-29 03:14:01 51°13.636 2°56.018 125.7 -999 199 -999
2012-05-29 03:14:06 51°13.636 2°56.018 125.7 -999 283 -999
2012-05-29 03:14:11 51°13.636 2°56.018 125.7 -999 279 -999
2012-05-29 03:14:16 51°13.636 2°56.018 125.7 -999 216 -999
2012-05-29 03:14:21 51°13.636 2°56.018 125.7 -999 138 -999
2012-05-29 03:14:27 51°13.636 2°56.018 125.7 -999 136 -999
2012-05-29 03:14:32 51°13.636 2°56.018 125.7 -999 92 -999
2012-05-29 03:14:37 51°13.636 2°56.018 125.7 -999 260 -999
2012-05-29 03:14:42 51°13.636 2°56.018 125.7 -999 288 -999
2012-05-29 03:14:47 51°13.636 2°56.018 125.7 -999 137 -999
2012-05-29 03:14:52 51°13.636 2°56.018 125.7 -999 193 -999
2012-05-29 03:14:57 51°13.636 2°56.018 125.7 -999 156 -999
2012-05-29 03:15:02 51°13.636 2°56.018 125.7 -999 201 -999
2012-05-29 03:15:06 51°13.636 2°56.018 125.7 -999 291 -999
2012-05-29 03:15:11 51°13.636 2°56.019 125.7 -999 216 -999
2012-05-29 03:15:16 51°13.636 2°56.019 125.7 -999 224 -999
2012-05-29 03:15:21 51°13.636 2°56.019 125.7 -999 281 -999
2012-05-29 03:15:26 51°13.636 2°56.019 125.7 -999 270 -999
2012-05-29 03:15:31 51°13.636 2°56.019 125.7 -999 279 -999
2012-05-29 03:15:36 51°13.636 2°56.019 125.8 -999 295 -999
2012-05-29 03:15:41 51°13.636 2°56.019 125.8 -999 107 -999
2012-05-29 03:15:46 51°13.636 2°56.019 125.8 -999 294 -999
2012-05-29 03:15:52 51°13.636 2°56.019 125.7 -999 196 -999
2012-05-29 03:15:57 51°13.636 2°56.019 125.7 -999 61 -999
2012-05-29 03:16:02 51°13.636 2°56.019 125.7 -999 277 -999
2012-05-29 03:16:07 51°13.636 2°56.019 125.7 -999 236 -999
2012-05-29 03:16:12 51°13.636 2°56.019 125.7 -999 336 -999
2012-05-29 03:16:17 51°13.636 2°56.019 125.7 -999 298 -999
2012-05-29 03:16:21 51°13.636 2°56.019 125.7 -999 177 -999
2012-05-29 03:16:26 51°13.636 2°56.019 125.7 -999 76 -999
2012-05-29 03:16:31 51°13.636 2°56.019 125.8 -999 117 -999
2012-05-29 03:16:36 51°13.636 2°56.019 125.8 -999 243 -999
2012-05-29 03:16:41 51°13.636 2°56.019 125.8 -999 249 -999
2012-05-29 03:16:46 51°13.636 2°56.019 125.8 -999 233 -999
2012-05-29 03:16:51 51°13.636 2°56.019 125.8 -999 258 -999
2012-05-29 03:16:57 51°13.637 2°56.019 125.8 -999 155 -999
2012-05-29 03:17:02 51°13.637 2°56.019 125.8 -999 317 -999
2012-05-29 03:17:07 51°13.637 2°56.019 125.7 -999 299 -999
2012-05-29 03:17:12 51°13.637 2°56.019 125.7 -999 90 -999
2012-05-29 03:17:16 51°13.637 2°56.019 125.7 -999 247 -999
2012-05-29 03:17:21 51°13.637 2°56.019 125.7 -999 293 -999
2012-05-29 03:17:27 51°13.637 2°56.019 125.7 -999 227 -999
2012-05-29 03:17:32 51°13.637 2°56.019 125.7 -999 253 -999
2012-05-29 03:17:36 51°13.637 2°56.019 125.7 -999 225 -999
2012-05-29 03:17:41 51°13.637 2°56.019 125.7 -999 318 -999
2012-05-29 03:17:46 51°13.637 2°56.019 125.8 -999 2 -999
2012-05-29 03:17:51 51°13.637 2°56.019 125.8 -999 120 -999
2012-05-29 03:17:57 51°13.637 2°56.019 125.8 -999 154 -999
2012-05-29 03:18:01 51°13.637 2°56.019 125.8 -999 284 -999
2012-05-29 03:18:06 51°13.637 2°56.019 125.8 -999 -999 -999
2012-05-29 03:18:11 51°13.637 2°56.02 125.8 -999 238 -999
2012-05-29 03:18:16 51°13.637 2°56.02 125.7 -999 326 -999
2012-05-29 03:18:21 51°13.637 2°56.02 125.7 -999 106 -999
2012-05-29 03:18:26 51°13.637 2°56.02 125.7 -999 291 -999
2012-05-29 03:18:32 51°13.637 2°56.02 125.7 -999 113 -999
2012-05-29 03:18:37 51°13.637 2°56.02 125.7 -999 88 -999
2012-05-29 03:18:42 51°13.637 2°56.02 125.7 -999 112 -999
2012-05-29 03:18:46 51°13.637 2°56.02 125.7 -999 252 -999
2012-05-29 03:18:51 51°13.637 2°56.02 125.7 -999 280 -999
2012-05-29 03:18:56 51°13.637 2°56.02 125.7 -999 8 -999
2012-05-29 03:19:02 51°13.637 2°56.02 125.7 -999 248 -999
2012-05-29 03:19:07 51°13.637 2°56.02 125.7 -999 347 -999
2012-05-29 03:19:12 51°13.637 2°56.02 125.7 -999 164 -999
2012-05-29 03:19:16 51°13.637 2°56.02 125.7 -999 251 -999
2012-05-29 03:19:21 51°13.637 2°56.02 125.7 -999 246 -999
2012-05-29 03:19:26 51°13.637 2°56.02 125.7 -999 299 -999
2012-05-29 03:19:32 51°13.637 2°56.02 125.7 -999 235 -999
2012-05-29 03:19:37 51°13.637 2°56.02 125.7 -999 223 -999
2012-05-29 03:19:42 51°13.637 2°56.02 125.7 -999 244 -999
2012-05-29 03:19:47 51°13.637 2°56.02 125.7 -999 242 -999
2012-05-29 03:19:52 51°13.637 2°56.02 125.7 -999 278 -999
2012-05-29 03:19:57 51°13.637 2°56.02 125.7 -999 68 -999
2012-05-29 03:20:02 51°13.637 2°56.02 125.7 -999 76 -999
2012-05-29 03:20:07 51°13.637 2°56.02 125.7 -999 85 -999
2012-05-29 03:20:12 51°13.637 2°56.02 125.7 -999 196 -999
2012-05-29 03:20:17 51°13.638 2°56.02 125.7 -999 220 -999
2012-05-29 03:20:22 51°13.638 2°56.02 125.7 -999 253 -999
2012-05-29 03:20:27 51°13.638 2°56.02 125.7 -999 266 -999
2012-05-29 03:20:32 51°13.638 2°56.02 125.7 -999 80 -999
2012-05-29 03:20:37 51°13.638 2°56.02 125.7 -999 318 -999
2012-05-29 03:20:42 51°13.638 2°56.02 125.7 -999 290 -999
2012-05-29 03:20:47 51°13.638 2°56.02 125.7 -999 284 -999
2012-05-29 03:20:52 51°13.638 2°56.02 125.7 -999 242 -999
2012-05-29 03:20:57 51°13.638 2°56.02 125.7 -999 220 -999
2012-05-29 03:21:02 51°13.638 2°56.02 125.7 -999 297 -999
2012-05-29 03:21:07 51°13.638 2°56.02 125.7 -999 291 -999
2012-05-29 03:21:11 51°13.638 2°56.02 125.7 -999 188 -999
2012-05-29 03:21:16 51°13.638 2°56.02 125.7 -999 204 -999
2012-05-29 03:21:21 51°13.638 2°56.02 125.7 -999 268 -999
2012-05-29 03:21:26 51°13.638 2°56.02 125.7 -999 119 -999
2012-05-29 03:21:31 51°13.638 2°56.02 125.8 -999 223 -999
2012-05-29 03:21:36 51°13.638 2°56.02 125.8 -999 206 -999
2012-05-29 03:21:41 51°13.638 2°56.019 125.8 -999 266 -999
2012-05-29 03:21:46 51°13.638 2°56.019 125.8 -999 184 -999
2012-05-29 03:21:52 51°13.638 2°56.019 125.8 -999 251 -999
2012-05-29 03:21:57 51°13.637 2°56.019 125.7 -999 252 -999
2012-05-29 03:22:02 51°13.637 2°56.019 125.7 -999 248 -999
2012-05-29 03:22:07 51°13.637 2°56.019 125.7 -999 286 -999
2012-05-29 03:22:12 51°13.637 2°56.018 125.7 -999 165 -999
2012-05-29 03:22:17 51°13.638 2°56.018 125.7 -999 246 -999
2012-05-29 03:22:22 51°13.638 2°56.018 125.7 -999 60 -999
2012-05-29 03:22:27 51°13.638 2°56.018 125.7 -999 83 -999
2012-05-29 03:22:31 51°13.638 2°56.018 125.8 -999 47 -999
2012-05-29 03:22:36 51°13.638 2°56.018 125.8 -999 187 -999
2012-05-29 03:22:41 51°13.638 2°56.018 125.8 -999 219 -999
2012-05-29 03:22:46 51°13.638 2°56.018 125.8 -999 330 -999
2012-05-29 03:22:51 51°13.638 2°56.018 125.8 -999 332 -999
2012-05-29 03:22:57 51°13.638 2°56.018 125.8 -999 150 -999
2012-05-29 03:23:02 51°13.638 2°56.018 125.8 -999 248 -999
2012-05-29 03:23:07 51°13.638 2°56.018 125.8 -999 337 -999
2012-05-29 03:23:12 51°13.638 2°56.018 125.8 -999 224 -999
2012-05-29 03:23:17 51°13.638 2°56.018 125.9 -999 324 -999
2012-05-29 03:23:22 51°13.638 2°56.018 125.9 -999 25 -999
2012-05-29 03:23:27 51°13.638 2°56.018 125.9 -999 262 -999
2012-05-29 03:23:31 51°13.638 2°56.018 125.9 -999 282 -999
2012-05-29 03:23:36 51°13.638 2°56.018 125.9 -999 272 -999
2012-05-29 03:23:41 51°13.638 2°56.018 125.9 -999 302 -999
2012-05-29 03:23:47 51°13.638 2°56.018 125.9 -999 9 -999
2012-05-29 03:23:52 51°13.638 2°56.018 125.9 -999 57 -999
2012-05-29 03:23:57 51°13.638 2°56.018 125.9 -999 9 -999
2012-05-29 03:24:02 51°13.638 2°56.018 125.8 -999 270 -999
2012-05-29 03:24:07 51°13.637 2°56.018 125.7 -999 39 -999
2012-05-29 03:24:12 51°13.637 2°56.018 125.7 -999 248 -999
2012-05-29 03:24:17 51°13.637 2°56.018 125.7 -999 282 -999
2012-05-29 03:24:21 51°13.637 2°56.018 125.7 -999 310 -999
2012-05-29 03:24:27 51°13.637 2°56.018 125.7 -999 225 -999
2012-05-29 03:24:32 51°13.637 2°56.018 125.8 -999 243 -999
2012-05-29 03:24:37 51°13.637 2°56.018 125.8 -999 109 -999
2012-05-29 03:24:41 51°13.637 2°56.018 125.9 -999 250 -999
2012-05-29 03:24:46 51°13.637 2°56.018 125.9 -999 177 -999
2012-05-29 03:24:51 51°13.637 2°56.019 125.9 -999 223 -999
2012-05-29 03:24:56 51°13.637 2°56.019 125.9 -999 217 -999
2012-05-29 03:25:01 51°13.637 2°56.019 125.9 -999 25 -999
2012-05-29 03:25:07 51°13.637 2°56.019 125.9 -999 155 -999
2012-05-29 03:25:12 51°13.637 2°56.019 125.9 -999 62 -999
2012-05-29 03:25:17 51°13.637 2°56.019 125.9 -999 305 -999
2012-05-29 03:25:22 51°13.637 2°56.02 125.9 -999 277 -999
2012-05-29 03:25:27 51°13.637 2°56.02 125.8 -999 146 -999
2012-05-29 03:25:32 51°13.637 2°56.019 125.7 -999 85 -999
2012-05-29 03:25:37 51°13.636 2°56.019 125.7 -999 63 -999
2012-05-29 03:25:42 51°13.636 2°56.019 125.7 -999 279 -999
2012-05-29 03:25:47 51°13.636 2°56.019 125.7 -999 306 -999
2012-05-29 03:25:52 51°13.636 2°56.019 125.7 -999 265 -999
2012-05-29 03:25:57 51°13.636 2°56.019 125.7 -999 219 -999
2012-05-29 03:26:02 51°13.636 2°56.019 125.8 -999 42 -999
2012-05-29 03:26:07 51°13.636 2°56.018 125.8 -999 352 -999
2012-05-29 03:26:11 51°13.636 2°56.018 125.8 -999 116 -999
2012-05-29 03:26:17 51°13.636 2°56.019 125.8 -999 101 -999
2012-05-29 03:26:21 51°13.636 2°56.019 125.8 -999 148 -999
2012-05-29 03:26:26 51°13.636 2°56.019 125.8 -999 20 -999
2012-05-29 03:26:31 51°13.636 2°56.019 125.8 -999 86 -999
2012-05-29 03:26:37 51°13.637 2°56.019 125.8 -999 117 -999
2012-05-29 03:26:41 51°13.637 2°56.019 125.7 -999 233 -999
2012-05-29 03:26:46 51°13.637 2°56.019 125.7 -999 240 -999
2012-05-29 03:26:51 51°13.637 2°56.019 125.7 -999 295 -999
2012-05-29 03:26:56 51°13.636 2°56.019 125.7 -999 228 -999
2012-05-29 03:27:01 51°13.636 2°56.019 125.7 -999 79 -999
2012-05-29 03:27:06 51°13.636 2°56.019 125.7 -999 107 -999
2012-05-29 03:27:12 51°13.636 2°56.018 125.7 -999 51 -999
2012-05-29 03:27:17 51°13.636 2°56.018 125.7 -999 187 -999
2012-05-29 03:27:22 51°13.636 2°56.018 125.7 -999 193 -999
2012-05-29 03:27:27 51°13.636 2°56.018 125.7 -999 77 -999
2012-05-29 03:27:32 51°13.636 2°56.018 125.7 -999 279 -999
2012-05-29 03:27:37 51°13.636 2°56.018 125.7 -999 280 -999
2012-05-29 03:27:42 51°13.636 2°56.018 125.7 -999 240 -999
2012-05-29 03:27:47 51°13.636 2°56.018 125.7 -999 193 -999
2012-05-29 03:27:52 51°13.636 2°56.018 125.7 -999 148 -999
2012-05-29 03:27:57 51°13.636 2°56.018 125.7 -999 161 -999
2012-05-29 03:28:02 51°13.636 2°56.018 125.7 -999 245 -999
2012-05-29 03:28:07 51°13.636 2°56.018 125.7 -999 192 -999
2012-05-29 03:28:12 51°13.636 2°56.017 125.7 -999 82 -999
2012-05-29 03:28:16 51°13.636 2°56.017 125.7 -999 246 -999
2012-05-29 03:28:21 51°13.636 2°56.017 125.7 -999 270 -999
2012-05-29 03:28:26 51°13.636 2°56.017 125.7 -999 234 -999
2012-05-29 03:28:31 51°13.636 2°56.018 125.7 -999 236 -999
2012-05-29 03:28:37 51°13.636 2°56.018 125.7 -999 124 -999
2012-05-29 03:28:41 51°13.636 2°56.018 125.7 -999 97 -999
2012-05-29 03:28:46 51°13.636 2°56.018 125.7 -999 243 -999
2012-05-29 03:28:51 51°13.636 2°56.018 125.7 -999 58 -999
2012-05-29 03:28:56 51°13.636 2°56.018 125.7 -999 124 -999
2012-05-29 03:29:01 51°13.636 2°56.018 125.7 -999 228 -999
2012-05-29 03:29:07 51°13.636 2°56.018 125.7 -999 58 -999
2012-05-29 03:29:12 51°13.636 2°56.018 125.7 -999 48 -999
2012-05-29 03:29:17 51°13.636 2°56.018 125.7 -999 93 -999
2012-05-29 03:29:22 51°13.636 2°56.018 125.7 -999 218 -999
2012-05-29 03:29:27 51°13.636 2°56.018 125.7 -999 243 -999
2012-05-29 03:29:32 51°13.636 2°56.018 125.7 -999 79 -999
2012-05-29 03:29:37 51°13.636 2°56.018 125.7 -999 272 -999
2012-05-29 03:29:42 51°13.636 2°56.018 125.7 -999 353 -999
2012-05-29 03:29:47 51°13.636 2°56.018 125.7 -999 234 -999
2012-05-29 03:29:52 51°13.636 2°56.018 125.7 -999 297 -999
2012-05-29 03:29:57 51°13.636 2°56.018 125.7 -999 147 -999
2012-05-29 03:30:02 51°13.636 2°56.018 125.7 -999 219 -999
2012-05-29 03:30:06 51°13.636 2°56.018 125.7 -999 208 -999
2012-05-29 03:30:11 51°13.636 2°56.018 125.8 -999 46 -999
2012-05-29 03:30:17 51°13.636 2°56.018 125.8 -999 172 -999
2012-05-29 03:30:21 51°13.636 2°56.018 125.8 -999 226 -999
2012-05-29 03:30:27 51°13.636 2°56.018 125.7 -999 295 -999
2012-05-29 03:30:32 51°13.636 2°56.018 125.7 -999 188 -999
2012-05-29 03:30:37 51°13.636 2°56.017 125.7 -999 258 -999
2012-05-29 03:30:42 51°13.636 2°56.017 125.7 -999 333 -999
2012-05-29 03:30:47 51°13.636 2°56.017 125.7 -999 259 -999
2012-05-29 03:30:52 51°13.636 2°56.017 125.7 -999 224 -999
2012-05-29 03:30:57 51°13.636 2°56.017 125.8 -999 236 -999
2012-05-29 03:31:02 51°13.636 2°56.017 125.8 -999 47 -999
2012-05-29 03:31:07 51°13.636 2°56.017 125.8 -999 235 -999
2012-05-29 03:31:12 51°13.636 2°56.017 125.8 -999 306 -999
2012-05-29 03:31:17 51°13.636 2°56.017 125.8 -999 148 -999
2012-05-29 03:31:22 51°13.636 2°56.017 125.8 -999 146 -999
2012-05-29 03:31:27 51°13.636 2°56.017 125.8 -999 141 -999
2012-05-29 03:31:32 51°13.636 2°56.017 125.8 -999 199 -999
2012-05-29 03:31:37 51°13.636 2°56.018 125.8 -999 195 -999
2012-05-29 03:31:42 51°13.636 2°56.018 125.8 -999 171 -999
2012-05-29 03:31:46 51°13.637 2°56.018 125.8 -999 281 -999
2012-05-29 03:31:52 51°13.638 2°56.019 125.8 -999 65 -999
2012-05-29 03:31:57 51°13.638 2°56.019 125.8 -999 37 -999
2012-05-29 03:32:02 51°13.638 2°56.019 125.8 -999 64 -999
2012-05-29 03:32:06 51°13.638 2°56.019 125.8 -999 31 -999
2012-05-29 03:32:11 51°13.638 2°56.019 125.8 -999 310 -999
2012-05-29 03:32:16 51°13.638 2°56.02 125.7 -999 148 -999
2012-05-29 03:32:21 51°13.638 2°56.02 125.7 -999 87 -999
2012-05-29 03:32:27 51°13.638 2°56.02 125.7 -999 63 -999
2012-05-29 03:32:32 51°13.638 2°56.02 125.7 -999 299 -999
2012-05-29 03:32:37 51°13.638 2°56.02 125.7 -999 195 -999
2012-05-29 03:32:42 51°13.638 2°56.02 125.7 -999 73 -999
2012-05-29 03:32:46 51°13.638 2°56.02 125.7 -999 265 -999
2012-05-29 03:32:51 51°13.638 2°56.02 125.7 -999 195 -999
2012-05-29 03:32:57 51°13.638 2°56.02 125.7 -999 69 -999
2012-05-29 03:33:02 51°13.639 2°56.02 125.7 -999 225 -999
2012-05-29 03:33:06 51°13.639 2°56.02 125.7 -999 135 -999
2012-05-29 03:33:11 51°13.639 2°56.02 125.7 -999 46 -999
2012-05-29 03:33:17 51°13.639 2°56.02 125.7 -999 260 -999
2012-05-29 03:33:22 51°13.639 2°56.02 125.7 -999 244 -999
2012-05-29 03:33:27 51°13.639 2°56.02 125.7 -999 243 -999
2012-05-29 03:33:31 51°13.639 2°56.02 125.7 -999 236 -999
2012-05-29 03:33:37 51°13.639 2°56.02 125.7 -999 184 -999
2012-05-29 03:33:42 51°13.639 2°56.02 125.7 -999 73 -999
2012-05-29 03:33:47 51°13.639 2°56.021 125.7 -999 61 -999
2012-05-29 03:33:51 51°13.639 2°56.021 125.7 -999 50 -999
2012-05-29 03:33:56 51°13.639 2°56.02 125.7 -999 43 -999
2012-05-29 03:34:01 51°13.639 2°56.02 125.7 -999 276 -999
2012-05-29 03:34:06 51°13.639 2°56.02 125.8 -999 147 -999
2012-05-29 03:34:11 51°13.639 2°56.02 125.8 -999 168 -999
2012-05-29 03:34:16 51°13.639 2°56.02 125.8 -999 265 -999
2012-05-29 03:34:21 51°13.639 2°56.02 125.8 -999 2 -999
2012-05-29 03:34:26 51°13.639 2°56.02 125.8 -999 267 -999
2012-05-29 03:34:32 51°13.639 2°56.02 125.8 -999 38 -999
2012-05-29 03:34:37 51°13.639 2°56.02 125.8 -999 236 -999
2012-05-29 03:34:42 51°13.639 2°56.02 125.7 -999 164 -999
2012-05-29 03:34:46 51°13.639 2°56.02 125.7 -999 237 -999
2012-05-29 03:34:51 51°13.639 2°56.02 125.7 -999 16 -999
2012-05-29 03:34:56 51°13.639 2°56.02 125.7 -999 79 -999
2012-05-29 03:35:01 51°13.639 2°56.02 125.7 -999 257 -999
2012-05-29 03:35:06 51°13.639 2°56.02 125.7 -999 285 -999
2012-05-29 03:35:12 51°13.639 2°56.02 125.8 -999 116 -999
2012-05-29 03:35:16 51°13.639 2°56.02 125.8 -999 202 -999
2012-05-29 03:35:22 51°13.639 2°56.02 125.8 -999 250 -999
2012-05-29 03:35:27 51°13.639 2°56.02 125.8 -999 226 -999
2012-05-29 03:35:32 51°13.639 2°56.02 125.8 0.1 229 -999
2012-05-29 03:35:36 51°13.639 2°56.02 125.8 -999 272 -999
2012-05-29 03:35:41 51°13.639 2°56.02 125.8 -999 76 -999
2012-05-29 03:35:46 51°13.639 2°56.02 125.8 -999 51 -999
2012-05-29 03:35:52 51°13.639 2°56.02 125.8 -999 104 -999
2012-05-29 03:35:56 51°13.639 2°56.02 125.8 -999 341 -999
2012-05-29 03:36:01 51°13.639 2°56.02 125.8 -999 249 -999
2012-05-29 03:36:07 51°13.64 2°56.02 125.8 -999 243 -999
2012-05-29 03:36:12 51°13.64 2°56.02 125.8 -999 30 -999
2012-05-29 03:36:16 51°13.64 2°56.02 125.8 -999 85 -999
2012-05-29 03:36:22 51°13.64 2°56.02 125.8 -999 230 -999
2012-05-29 03:36:27 51°13.64 2°56.02 125.8 -999 253 -999
2012-05-29 03:36:32 51°13.64 2°56.02 125.8 -999 235 -999
2012-05-29 03:36:37 51°13.64 2°56.02 125.8 -999 182 -999
2012-05-29 03:36:42 51°13.64 2°56.021 125.8 -999 145 -999
2012-05-29 03:36:47 51°13.641 2°56.021 125.8 -999 252 -999
2012-05-29 03:36:52 51°13.641 2°56.021 125.8 -999 155 -999
2012-05-29 03:36:57 51°13.641 2°56.021 125.8 -999 208 -999
2012-05-29 03:37:02 51°13.641 2°56.021 125.8 -999 253 -999
2012-05-29 03:37:07 51°13.641 2°56.021 125.8 -999 23 -999
2012-05-29 03:37:11 51°13.641 2°56.021 125.8 -999 199 -999
2012-05-29 03:37:16 51°13.641 2°56.021 125.8 -999 235 -999
2012-05-29 03:37:21 51°13.641 2°56.021 125.8 -999 210 -999
2012-05-29 03:37:26 51°13.641 2°56.02 125.8 -999 243 -999
2012-05-29 03:37:31 51°13.641 2°56.02 125.8 -999 14 -999
2012-05-29 03:37:37 51°13.641 2°56.02 125.8 -999 287 -999
2012-05-29 03:37:42 51°13.641 2°56.02 125.8 -999 252 -999
2012-05-29 03:37:47 51°13.641 2°56.02 125.8 -999 247 -999
2012-05-29 03:37:52 51°13.641 2°56.02 125.8 -999 234 -999
2012-05-29 03:37:57 51°13.641 2°56.02 125.8 -999 217 -999
2012-05-29 03:38:02 51°13.64 2°56.02 125.8 -999 83 -999
2012-05-29 03:38:07 51°13.64 2°56.02 125.8 -999 77 -999
2012-05-29 03:38:12 51°13.64 2°56.02 125.8 -999 249 -999
2012-05-29 03:38:17 51°13.64 2°56.02 125.8 -999 234 -999
2012-05-29 03:38:22 51°13.64 2°56.02 125.7 -999 226 -999
2012-05-29 03:38:27 51°13.64 2°56.02 125.7 -999 237 -999
2012-05-29 03:38:32 51°13.64 2°56.02 125.7 -999 236 -999
2012-05-29 03:38:37 51°13.64 2°56.02 125.7 -999 189 -999
2012-05-29 03:38:42 51°13.639 2°56.019 125.7 -999 254 -999
2012-05-29 03:38:47 51°13.639 2°56.019 125.7 -999 10 -999
2012-05-29 03:38:51 51°13.639 2°56.019 125.8 -999 255 -999
2012-05-29 03:38:56 51°13.639 2°56.019 125.8 -999 135 -999
2012-05-29 03:39:01 51°13.639 2°56.019 125.8 -999 216 -999
2012-05-29 03:39:07 51°13.639 2°56.019 125.8 -999 256 -999
2012-05-29 03:39:12 51°13.639 2°56.019 125.8 -999 247 -999
2012-05-29 03:39:16 51°13.639 2°56.019 125.8 -999 224 -999
2012-05-29 03:39:21 51°13.639 2°56.019 125.8 -999 241 -999
2012-05-29 03:39:26 51°13.639 2°56.019 125.8 -999 258 -999
2012-05-29 03:39:32 51°13.639 2°56.019 125.8 -999 123 -999
2012-05-29 03:39:36 51°13.639 2°56.019 125.8 -999 214 -999
2012-05-29 03:39:41 51°13.639 2°56.019 125.8 -999 154 -999
2012-05-29 03:39:46 51°13.639 2°56.02 125.8 -999 162 -999
2012-05-29 03:39:51 51°13.639 2°56.02 125.8 -999 226 -999
2012-05-29 03:39:56 51°13.639 2°56.02 125.8 -999 241 -999
2012-05-29 03:40:02 51°13.64 2°56.02 125.8 -999 53 -999
2012-05-29 03:40:07 51°13.64 2°56.02 125.8 -999 90 -999
2012-05-29 03:40:12 51°13.64 2°56.02 125.8 -999 233 -999
2012-05-29 03:40:17 51°13.64 2°56.02 125.8 -999 66 -999
2012-05-29 03:40:22 51°13.64 2°56.02 125.8 -999 66 -999
2012-05-29 03:40:26 51°13.64 2°56.019 125.8 -999 251 -999
2012-05-29 03:40:31 51°13.64 2°56.019 125.8 -999 295 -999
2012-05-29 03:40:36 51°13.64 2°56.019 125.8 -999 272 -999
2012-05-29 03:40:41 51°13.64 2°56.019 125.8 -999 263 -999
2012-05-29 03:40:46 51°13.64 2°56.019 125.8 -999 64 -999
2012-05-29 03:40:51 51°13.64 2°56.019 125.8 -999 254 -999
2012-05-29 03:40:56 51°13.639 2°56.019 125.8 -999 79 -999
2012-05-29 03:41:02 51°13.639 2°56.019 125.8 -999 199 -999
2012-05-29 03:41:07 51°13.639 2°56.019 125.8 -999 209 -999
2012-05-29 03:41:12 51°13.639 2°56.02 125.8 -999 81 -999
2012-05-29 03:41:17 51°13.639 2°56.02 125.8 -999 233 -999
2012-05-29 03:41:22 51°13.639 2°56.02 125.8 -999 249 -999
2012-05-29 03:41:26 51°13.639 2°56.02 125.7 -999 210 -999
2012-05-29 03:41:31 51°13.639 2°56.02 125.7 -999 270 -999
2012-05-29 03:41:37 51°13.639 2°56.02 125.7 -999 221 -999
2012-05-29 03:41:42 51°13.639 2°56.02 125.7 -999 227 -999
2012-05-29 03:41:47 51°13.639 2°56.02 125.7 -999 79 -999
2012-05-29 03:41:52 51°13.639 2°56.02 125.7 -999 208 -999
2012-05-29 03:41:57 51°13.639 2°56.02 125.7 0.1 240 -999
2012-05-29 03:42:02 51°13.639 2°56.02 125.7 -999 259 -999
2012-05-29 03:42:07 51°13.639 2°56.02 125.7 -999 253 -999
2012-05-29 03:42:12 51°13.639 2°56.02 125.7 -999 245 -999
2012-05-29 03:42:17 51°13.639 2°56.02 125.7 0.1 237 -999
2012-05-29 03:42:21 51°13.639 2°56.02 125.7 -999 241 -999
2012-05-29 03:42:26 51°13.639 2°56.02 125.7 -999 46 -999
2012-05-29 03:42:31 51°13.639 2°56.02 125.7 -999 202 -999
2012-05-29 03:42:36 51°13.639 2°56.02 125.7 -999 84 -999
2012-05-29 03:42:41 51°13.639 2°56.02 125.7 -999 140 -999
2012-05-29 03:42:46 51°13.639 2°56.02 125.7 -999 123 -999
2012-05-29 03:42:51 51°13.639 2°56.02 125.7 0.1 248 -999
2012-05-29 03:42:56 51°13.638 2°56.019 125.7 -999 266 -999
2012-05-29 03:43:02 51°13.638 2°56.019 125.7 -999 244 -999
2012-05-29 03:43:07 51°13.638 2°56.019 125.7 -999 245 -999
2012-05-29 03:43:12 51°13.638 2°56.019 125.7 -999 212 -999
2012-05-29 03:43:17 51°13.638 2°56.019 125.7 -999 224 -999
2012-05-29 03:43:22 51°13.638 2°56.019 125.7 -999 182 -999
2012-05-29 03:43:27 51°13.638 2°56.019 125.7 -999 198 -999
2012-05-29 03:43:31 51°13.638 2°56.019 125.7 0.1 245 -999
2012-05-29 03:43:37 51°13.637 2°56.019 125.7 -999 264 -999
2012-05-29 03:43:42 51°13.637 2°56.018 125.7 -999 255 -999
2012-05-29 03:43:47 51°13.637 2°56.019 125.7 -999 61 -999
2012-05-29 03:43:52 51°13.637 2°56.018 125.7 -999 81 -999
2012-05-29 03:43:56 51°13.637 2°56.018 125.8 -999 280 -999
2012-05-29 03:44:02 51°13.637 2°56.018 125.9 -999 176 -999
2012-05-29 03:44:06 51°13.637 2°56.018 125.9 -999 191 -999
2012-05-29 03:44:11 51°13.637 2°56.018 125.9 -999 159 -999
2012-05-29 03:44:16 51°13.637 2°56.018 125.9 -999 246 -999
2012-05-29 03:44:21 51°13.637 2°56.018 125.9 -999 248 -999
2012-05-29 03:44:26 51°13.637 2°56.018 125.9 -999 253 -999
2012-05-29 03:44:31 51°13.637 2°56.018 125.9 -999 92 -999
2012-05-29 03:44:36 51°13.637 2°56.018 125.9 -999 139 -999
2012-05-29 03:44:41 51°13.637 2°56.018 125.9 -999 246 -999
2012-05-29 03:44:46 51°13.637 2°56.018 125.9 -999 346 -999
2012-05-29 03:44:52 51°13.637 2°56.019 125.9 -999 225 -999
2012-05-29 03:44:57 51°13.637 2°56.019 125.9 -999 214 -999
2012-05-29 03:45:02 51°13.637 2°56.018 125.9 -999 227 -999
2012-05-29 03:45:07 51°13.636 2°56.018 125.9 -999 230 -999
2012-05-29 03:45:12 51°13.636 2°56.018 125.9 -999 260 -999